createdAt,value
2018-06-25T00:01:40.043Z,4.00
2018-06-25T00:04:08.868Z,4.73
2018-06-25T00:06:37.674Z,2.07
2018-06-25T00:09:08.033Z,5.90
2018-06-25T00:11:36.842Z,3.13
2018-06-25T00:14:05.750Z,2.07
2018-06-25T00:16:34.552Z,2.00
2018-06-25T00:19:03.345Z,2.70
2018-06-25T00:21:32.212Z,3.57
2018-06-25T00:24:01.022Z,5.80
2018-06-25T00:26:29.820Z,1.80
2018-06-25T00:28:58.631Z,3.90
2018-06-25T00:31:27.535Z,4.03
2018-06-25T00:33:56.340Z,1.97
2018-06-25T00:36:25.240Z,2.40
2018-06-25T00:38:54.077Z,2.30
2018-06-25T00:41:22.892Z,8.23
2018-06-25T00:43:51.770Z,2.67
2018-06-25T00:46:20.582Z,1.90
2018-06-25T00:48:49.340Z,3.13
2018-06-25T00:51:18.142Z,5.03
2018-06-25T00:53:46.976Z,4.10
2018-06-25T00:56:15.729Z,2.40
2018-06-25T00:58:55.437Z,2.33
2018-06-25T01:01:24.292Z,4.30
2018-06-25T01:03:53.084Z,3.27
2018-06-25T01:06:21.909Z,2.40
2018-06-25T01:08:50.693Z,2.80
2018-06-25T01:11:19.501Z,2.37
2018-06-25T01:13:48.382Z,3.10
2018-06-25T01:16:17.142Z,2.43
2018-06-25T01:18:45.958Z,2.80
2018-06-25T01:21:14.886Z,2.87
2018-06-25T01:23:43.721Z,2.30
2018-06-25T01:26:12.520Z,2.67
2018-06-25T01:28:41.408Z,3.47
2018-06-25T01:31:10.188Z,2.70
2018-06-25T01:33:38.949Z,3.77
2018-06-25T01:36:07.763Z,2.57
2018-06-25T01:38:36.561Z,2.90
2018-06-25T01:41:05.376Z,3.33
2018-06-25T01:43:34.496Z,4.50
2018-06-25T01:46:03.359Z,6.67
2018-06-25T01:48:32.127Z,6.90
2018-06-25T01:51:00.940Z,3.77
2018-06-25T01:53:29.717Z,4.47
2018-06-25T01:55:58.565Z,6.73
2018-06-25T01:58:27.547Z,3.90
2018-06-25T02:00:56.302Z,3.17
2018-06-25T02:03:25.048Z,3.50
2018-06-25T02:05:53.992Z,2.73
2018-06-25T02:08:22.800Z,6.33
2018-06-25T02:10:51.572Z,3.10
2018-06-25T02:13:20.372Z,6.90
2018-06-25T02:15:49.157Z,3.77
2018-06-25T02:19:47.339Z,2.70
2018-06-25T02:22:16.107Z,5.70
2018-06-25T02:24:44.887Z,2.87
2018-06-25T02:27:13.724Z,2.63
2018-06-25T02:29:42.548Z,3.17
2018-06-25T02:32:11.361Z,5.03
2018-06-25T02:34:40.335Z,2.80
2018-06-25T02:37:09.126Z,5.30
2018-06-25T02:39:37.983Z,4.17
2018-06-25T02:42:07.129Z,3.17
2018-06-25T02:44:35.954Z,2.93
2018-06-25T02:47:04.821Z,3.07
2018-06-25T02:49:33.622Z,4.30
2018-06-25T02:52:02.458Z,3.17
2018-06-25T02:54:31.263Z,6.33
2018-06-25T02:57:00.209Z,2.97
2018-06-25T02:59:29.030Z,5.00
2018-06-25T03:01:57.848Z,3.03
2018-06-25T03:04:26.707Z,4.00
2018-06-25T03:06:55.485Z,4.40
2018-06-25T03:09:24.292Z,3.13
2018-06-25T03:11:53.196Z,3.00
2018-06-25T03:14:22.058Z,3.27
2018-06-25T03:16:50.844Z,3.10
2018-06-25T03:19:19.665Z,3.10
2018-06-25T03:21:48.454Z,4.90
2018-06-25T03:24:17.269Z,4.10
2018-06-25T03:26:46.102Z,2.20
2018-06-25T03:29:14.865Z,3.07
2018-06-25T03:31:43.771Z,2.87
2018-06-25T03:34:12.636Z,2.70
2018-06-25T03:36:41.470Z,5.10
2018-06-25T03:39:11.507Z,2.60
2018-06-25T03:41:40.559Z,2.23
2018-06-25T03:44:09.352Z,3.73
2018-06-25T03:46:38.157Z,3.37
2018-06-25T03:49:06.990Z,9.93
2018-06-25T03:51:35.844Z,2.97
2018-06-25T03:54:04.654Z,3.27
2018-06-25T03:56:33.584Z,5.10
2018-06-25T03:59:02.428Z,6.90
2018-06-25T04:01:31.269Z,6.30
2018-06-25T04:04:00.263Z,6.23
2018-06-25T04:06:29.777Z,4.97
2018-06-25T04:08:58.549Z,8.27
2018-06-25T04:11:27.328Z,4.57
2018-06-25T04:13:56.091Z,5.10
2018-06-25T04:16:24.884Z,8.80
2018-06-25T04:18:59.461Z,5.27
2018-06-25T04:21:28.266Z,7.93
2018-06-25T04:23:57.015Z,6.37
2018-06-25T04:26:26.204Z,5.17
2018-06-25T04:28:54.954Z,4.13
2018-06-25T04:31:24.339Z,4.40
2018-06-25T04:33:53.395Z,4.47
2018-06-25T04:36:22.209Z,5.43
2018-06-25T04:38:51.069Z,8.33
2018-06-25T04:41:20.059Z,4.47
2018-06-25T04:43:48.855Z,8.63
2018-06-25T04:46:17.638Z,6.70
2018-06-25T04:48:46.456Z,4.70
2018-06-25T04:51:15.238Z,5.07
2018-06-25T04:53:44.038Z,4.73
2018-06-25T04:56:13.011Z,5.63
2018-06-25T04:58:41.791Z,6.63
2018-06-25T05:01:10.637Z,5.17
2018-06-25T05:03:39.672Z,5.60
2018-06-25T05:06:08.532Z,4.97
2018-06-25T05:08:37.283Z,6.93
2018-06-25T05:11:06.613Z,8.10
2018-06-25T05:13:35.372Z,5.17
2018-06-25T05:16:04.216Z,5.93
2018-06-25T05:18:33.015Z,6.30
2018-06-25T05:21:01.848Z,8.10
2018-06-25T05:23:30.680Z,9.63
2018-06-25T05:25:59.480Z,6.80
2018-06-25T05:28:28.335Z,7.03
2018-06-25T05:30:57.100Z,6.30
2018-06-25T05:33:25.958Z,8.03
2018-06-25T05:35:54.749Z,7.43
2018-06-25T05:38:23.533Z,7.57
2018-06-25T05:40:52.436Z,7.77
2018-06-25T05:43:21.245Z,11.07
2018-06-25T05:45:50.015Z,8.70
2018-06-25T05:48:18.965Z,8.07
2018-06-25T05:50:47.859Z,8.70
2018-06-25T05:53:16.695Z,9.17
2018-06-25T05:55:45.524Z,10.17
2018-06-25T05:58:14.346Z,10.47
2018-06-25T06:00:43.357Z,15.10
2018-06-25T06:03:12.167Z,9.33
2018-06-25T06:05:40.968Z,11.07
2018-06-25T06:08:09.772Z,12.43
2018-06-25T06:10:38.908Z,10.80
2018-06-25T06:13:07.893Z,13.07
2018-06-25T06:15:36.657Z,11.23
2018-06-25T06:18:05.775Z,10.97
2018-06-25T06:20:34.579Z,10.30
2018-06-25T06:23:03.351Z,11.07
2018-06-25T06:25:32.184Z,11.17
2018-06-25T06:28:00.964Z,11.47
2018-06-25T06:30:30.691Z,12.00
2018-06-25T06:32:59.965Z,12.93
2018-06-25T06:35:28.960Z,14.83
2018-06-25T06:37:57.723Z,11.47
2018-06-25T06:40:26.925Z,11.83
2018-06-25T06:42:55.698Z,14.07
2018-06-25T06:45:26.747Z,11.53
2018-06-25T06:47:55.812Z,13.93
2018-06-25T06:50:24.615Z,14.43
2018-06-25T06:52:53.597Z,11.60
2018-06-25T06:55:22.685Z,11.50
2018-06-25T06:57:51.587Z,12.87
2018-06-25T07:00:20.305Z,11.57
2018-06-25T07:02:49.457Z,12.83
2018-06-25T07:05:18.211Z,12.27
2018-06-25T07:07:47.079Z,12.57
2018-06-25T07:10:16.069Z,11.00
2018-06-25T07:12:44.978Z,11.57
2018-06-25T07:15:13.852Z,15.43
2018-06-25T07:17:43.352Z,14.30
2018-06-25T07:20:12.151Z,12.53
2018-06-25T07:22:40.936Z,12.30
2018-06-25T07:25:09.771Z,12.63
2018-06-25T07:27:38.666Z,14.17
2018-06-25T07:30:07.559Z,15.03
2018-06-25T07:32:36.511Z,12.30
2018-06-25T07:35:05.532Z,13.37
2018-06-25T07:37:34.467Z,15.87
2018-06-25T07:40:03.533Z,15.57
2018-06-25T07:42:32.323Z,14.10
2018-06-25T07:45:01.115Z,16.27
2018-06-25T07:47:30.333Z,13.63
2018-06-25T07:49:59.792Z,12.00
2018-06-25T07:52:28.602Z,10.70
2018-06-25T07:54:57.456Z,12.33
2018-06-25T07:57:26.318Z,16.20
2018-06-25T07:59:55.215Z,12.07
2018-06-25T08:02:24.203Z,12.13
2018-06-25T08:04:52.999Z,11.87
2018-06-25T08:07:21.840Z,11.97
2018-06-25T08:09:50.748Z,12.23
2018-06-25T08:12:19.565Z,12.13
2018-06-25T08:14:48.360Z,12.43
2018-06-25T08:17:17.364Z,12.60
2018-06-25T08:19:46.176Z,14.07
2018-06-25T08:22:15.982Z,15.07
2018-06-25T08:24:44.849Z,15.93
2018-06-25T08:27:13.672Z,13.13
2018-06-25T08:29:42.605Z,12.43
2018-06-25T08:32:11.648Z,15.00
2018-06-25T08:34:40.460Z,11.97
2018-06-25T08:37:09.320Z,12.63
2018-06-25T08:39:38.225Z,11.60
2018-06-25T08:42:07.310Z,12.23
2018-06-25T08:44:36.211Z,12.10
2018-06-25T08:47:05.266Z,11.37
2018-06-25T08:49:34.042Z,13.47
2018-06-25T08:52:02.995Z,11.40
2018-06-25T08:54:31.977Z,11.63
2018-06-25T08:57:00.881Z,11.93
2018-06-25T08:59:29.796Z,13.87
2018-06-25T09:01:58.659Z,11.00
2018-06-25T09:04:27.513Z,11.37
2018-06-25T09:06:56.306Z,11.17
2018-06-25T09:09:25.166Z,10.27
2018-06-25T09:11:53.968Z,8.60
2018-06-25T09:14:22.753Z,10.57
2018-06-25T09:16:51.668Z,10.87
2018-06-25T09:19:20.483Z,12.20
2018-06-25T09:21:49.295Z,9.57
2018-06-25T09:24:18.142Z,9.47
2018-06-25T09:26:47.056Z,10.13
2018-06-25T09:29:15.908Z,9.60
2018-06-25T09:31:45.058Z,8.63
2018-06-25T09:34:18.884Z,9.10
2018-06-25T09:36:47.869Z,8.27
2018-06-25T09:39:16.694Z,8.10
2018-06-25T09:41:45.745Z,7.70
2018-06-25T09:44:14.465Z,8.57
2018-06-25T09:46:43.282Z,14.10
2018-06-25T09:49:12.774Z,7.53
2018-06-25T09:51:41.612Z,6.83
2018-06-25T09:54:10.376Z,9.43
2018-06-25T09:56:39.200Z,8.20
2018-06-25T09:59:08.072Z,8.50
2018-06-25T10:01:36.911Z,7.53
2018-06-25T10:04:05.710Z,7.27
2018-06-25T10:06:34.545Z,7.87
2018-06-25T10:09:03.502Z,6.97
2018-06-25T10:11:32.279Z,8.87
2018-06-25T10:14:01.255Z,6.37
2018-06-25T10:16:30.053Z,6.27
2018-06-25T10:18:58.879Z,6.97
2018-06-25T10:21:28.165Z,7.43
2018-06-25T10:23:56.981Z,6.77
2018-06-25T10:26:25.796Z,6.93
2018-06-25T10:28:54.652Z,8.77
2018-06-25T10:31:23.431Z,6.67
2018-06-25T10:33:52.284Z,7.00
2018-06-25T10:36:21.110Z,8.23
2018-06-25T10:38:49.895Z,7.37
2018-06-25T10:41:18.675Z,9.23
2018-06-25T10:43:47.498Z,9.90
2018-06-25T10:46:16.287Z,9.50
2018-06-25T10:48:45.084Z,10.77
2018-06-25T10:51:14.205Z,9.70
2018-06-25T10:53:43.005Z,8.00
2018-06-25T10:56:11.777Z,6.33
2018-06-25T10:58:40.808Z,6.10
2018-06-25T11:01:09.751Z,7.73
2018-06-25T11:03:38.556Z,7.47
2018-06-25T11:06:08.775Z,5.70
2018-06-25T11:08:38.110Z,6.10
2018-06-25T11:11:06.935Z,8.50
2018-06-25T11:13:36.111Z,8.77
2018-06-25T11:16:05.256Z,6.73
2018-06-25T11:18:34.045Z,7.07
2018-06-25T11:21:02.936Z,6.43
2018-06-25T11:23:31.797Z,6.77
2018-06-25T11:26:00.594Z,6.00
2018-06-25T11:28:29.416Z,6.63
2018-06-25T11:30:58.237Z,6.50
2018-06-25T11:33:27.012Z,7.20
2018-06-25T11:35:56.205Z,6.47
2018-06-25T11:38:25.006Z,6.93
2018-06-25T11:40:53.773Z,6.90
2018-06-25T11:43:22.607Z,6.87
2018-06-25T11:45:51.408Z,6.53
2018-06-25T11:48:20.235Z,7.70
2018-06-25T11:50:49.203Z,6.43
2018-06-25T11:53:17.999Z,7.60
2018-06-25T11:55:46.766Z,6.70
2018-06-25T11:58:15.792Z,8.97
2018-06-25T12:00:44.609Z,5.63
2018-06-25T12:03:13.577Z,7.40
2018-06-25T12:05:42.409Z,10.87
2018-06-25T12:08:11.245Z,5.50
2018-06-25T12:10:40.098Z,4.73
2018-06-25T12:13:09.761Z,5.50
2018-06-25T12:15:38.558Z,5.33
2018-06-25T12:18:07.382Z,5.93
2018-06-25T12:20:36.548Z,5.60
2018-06-25T12:23:05.673Z,6.20
2018-06-25T12:25:34.510Z,5.73
2018-06-25T12:28:03.355Z,5.33
2018-06-25T12:30:32.140Z,7.53
2018-06-25T12:33:00.967Z,6.90
2018-06-25T12:35:29.925Z,5.80
2018-06-25T12:37:58.814Z,5.87
2018-06-25T12:40:27.574Z,5.57
2018-06-25T12:42:56.871Z,6.33
2018-06-25T12:45:25.647Z,5.87
2018-06-25T12:47:54.471Z,6.03
2018-06-25T12:50:23.431Z,5.70
2018-06-25T12:52:52.232Z,4.10
2018-06-25T12:55:21.011Z,4.00
2018-06-25T12:57:50.126Z,3.53
2018-06-25T13:00:18.960Z,3.70
2018-06-25T13:02:47.780Z,3.53
2018-06-25T13:05:16.747Z,3.40
2018-06-25T13:07:45.576Z,3.57
2018-06-25T13:10:14.363Z,3.13
2018-06-25T13:12:43.282Z,3.93
2018-06-25T13:15:12.117Z,4.70
2018-06-25T13:17:41.046Z,4.73
2018-06-25T13:20:10.317Z,3.83
2018-06-25T13:22:39.132Z,4.20
2018-06-25T13:25:07.964Z,4.20
2018-06-25T13:27:36.941Z,4.20
2018-06-25T13:30:05.935Z,4.27
2018-06-25T13:32:34.757Z,3.87
2018-06-25T13:35:03.682Z,3.77
2018-06-25T13:37:32.542Z,5.23
2018-06-25T13:40:01.400Z,5.47
2018-06-25T13:42:30.389Z,6.23
2018-06-25T13:44:59.196Z,4.23
2018-06-25T13:47:27.977Z,3.80
2018-06-25T13:49:56.950Z,7.03
2018-06-25T13:52:25.809Z,3.97
2018-06-25T13:54:54.612Z,4.10
2018-06-25T13:57:23.460Z,4.70
2018-06-25T13:59:52.271Z,5.57
2018-06-25T14:02:21.087Z,3.13
2018-06-25T14:04:49.903Z,3.27
2018-06-25T14:07:18.781Z,3.43
2018-06-25T14:09:47.682Z,3.37
2018-06-25T14:12:17.192Z,3.37
2018-06-25T14:14:46.055Z,3.43
2018-06-25T14:17:14.867Z,4.00
2018-06-25T14:19:43.766Z,5.77
2018-06-25T14:22:12.580Z,5.13
2018-06-25T14:24:46.800Z,3.20
2018-06-25T14:27:15.642Z,3.17
2018-06-25T14:29:44.430Z,3.33
2018-06-25T14:32:18.640Z,3.30
2018-06-25T14:34:52.625Z,3.20
2018-06-25T14:37:21.484Z,3.40
2018-06-25T14:39:50.294Z,3.47
2018-06-25T14:42:19.096Z,6.80
2018-06-25T14:44:48.070Z,3.30
2018-06-25T14:47:16.931Z,4.50
2018-06-25T14:49:46.557Z,3.83
2018-06-25T14:52:15.510Z,4.63
2018-06-25T14:54:44.313Z,3.27
2018-06-25T14:57:13.101Z,3.50
2018-06-25T14:59:41.949Z,3.13
2018-06-25T15:02:10.729Z,3.87
2018-06-25T15:04:39.606Z,3.33
2018-06-25T15:07:08.544Z,4.27
2018-06-25T15:09:37.312Z,3.40
2018-06-25T15:12:06.126Z,4.60
2018-06-25T15:14:34.977Z,3.00
2018-06-25T15:17:03.836Z,3.60
2018-06-25T15:19:32.639Z,6.03
2018-06-25T15:22:01.546Z,3.50
2018-06-25T15:24:30.353Z,8.97
2018-06-25T15:26:59.178Z,4.83
2018-06-25T15:29:28.178Z,4.17
2018-06-25T15:31:57.035Z,6.23
2018-06-25T15:34:25.854Z,3.30
2018-06-25T15:36:54.788Z,4.57
2018-06-25T15:39:23.615Z,5.50
2018-06-25T15:41:52.422Z,3.90
2018-06-25T15:44:21.403Z,4.80
2018-06-25T15:46:51.357Z,5.07
2018-06-25T15:49:20.184Z,6.90
2018-06-25T15:51:50.044Z,4.27
2018-06-25T15:54:18.886Z,4.33
2018-06-25T15:56:47.736Z,4.30
2018-06-25T15:59:16.621Z,6.57
2018-06-25T16:01:45.425Z,5.13
2018-06-25T16:04:14.249Z,6.13
2018-06-25T16:06:43.186Z,6.23
2018-06-25T16:09:11.961Z,5.53
2018-06-25T16:11:40.800Z,4.10
2018-06-25T16:14:09.622Z,5.77
2018-06-25T16:16:38.450Z,5.77
2018-06-25T16:19:07.292Z,4.37
2018-06-25T16:21:36.227Z,6.13
2018-06-25T16:24:05.081Z,6.40
2018-06-25T16:26:33.928Z,4.20
2018-06-25T16:29:02.844Z,6.40
2018-06-25T16:31:31.732Z,4.53
2018-06-25T16:34:00.578Z,4.50
2018-06-25T16:36:29.434Z,4.37
2018-06-25T16:38:58.332Z,4.60
2018-06-25T16:41:27.152Z,5.53
2018-06-25T16:43:56.061Z,4.33
2018-06-25T16:46:24.888Z,4.93
2018-06-25T16:48:53.759Z,4.80
2018-06-25T16:51:22.578Z,6.37
2018-06-25T16:53:52.332Z,5.63
2018-06-25T16:56:21.203Z,4.60
2018-06-25T16:58:50.092Z,5.37
2018-06-25T17:01:18.926Z,5.60
2018-06-25T17:03:48.377Z,5.30
2018-06-25T17:06:17.262Z,10.23
2018-06-25T17:08:46.063Z,4.70
2018-06-25T17:11:14.859Z,4.67
2018-06-25T17:13:43.955Z,5.10
2018-06-25T17:16:12.819Z,6.43
2018-06-25T17:18:41.604Z,4.97
2018-06-25T17:21:10.663Z,7.13
2018-06-25T17:23:39.575Z,8.20
2018-06-25T17:26:08.395Z,7.60
2018-06-25T17:28:37.350Z,6.80
2018-06-25T17:31:06.246Z,6.57
2018-06-25T17:33:35.081Z,10.07
2018-06-25T17:36:04.122Z,4.97
2018-06-25T17:38:32.998Z,5.43
2018-06-25T17:41:01.852Z,9.70
2018-06-25T17:43:30.725Z,13.17
2018-06-25T17:45:59.554Z,15.43
2018-06-25T17:48:28.387Z,9.47
2018-06-25T17:50:57.287Z,7.03
2018-06-25T17:53:26.083Z,7.20
2018-06-25T17:55:54.915Z,7.53
2018-06-25T17:58:23.787Z,6.70
2018-06-25T18:00:52.759Z,6.83
2018-06-25T18:03:21.771Z,5.57
2018-06-25T18:05:50.765Z,5.20
2018-06-25T18:08:19.571Z,4.83
2018-06-25T18:10:48.372Z,5.93
2018-06-25T18:13:17.592Z,4.30
2018-06-25T18:15:46.383Z,5.10
2018-06-25T18:18:15.303Z,7.57
2018-06-25T18:20:44.365Z,4.30
2018-06-25T18:23:13.175Z,4.50
2018-06-25T18:25:42.051Z,4.53
2018-06-25T18:28:11.102Z,3.73
2018-06-25T18:30:39.926Z,5.03
2018-06-25T18:33:08.768Z,4.23
2018-06-25T18:35:37.768Z,6.90
2018-06-25T18:38:06.588Z,4.53
2018-06-25T18:40:35.492Z,6.60
2018-06-25T18:43:05.010Z,5.33
2018-06-25T18:45:33.816Z,9.20
2018-06-25T18:48:02.655Z,5.93
2018-06-25T18:50:31.538Z,5.50
2018-06-25T18:53:00.388Z,6.53
2018-06-25T18:55:29.188Z,6.33
2018-06-25T18:57:58.104Z,7.80
2018-06-25T19:00:26.918Z,9.57
2018-06-25T19:02:55.778Z,10.37
2018-06-25T19:05:24.805Z,10.17
2018-06-25T19:07:53.621Z,22.73
2018-06-25T19:10:22.426Z,10.67
2018-06-25T19:12:51.700Z,10.10
2018-06-25T19:15:20.547Z,6.77
2018-06-25T19:17:49.447Z,7.43
2018-06-25T19:20:18.362Z,7.53
2018-06-25T19:22:47.186Z,7.70
2018-06-25T19:25:16.057Z,7.70
2018-06-25T19:40:35.115Z,5.07
2018-06-25T19:43:03.974Z,4.10
2018-06-25T19:45:32.811Z,4.90
2018-06-25T19:48:01.864Z,6.90
2018-06-25T19:50:30.772Z,5.43
2018-06-25T19:52:59.599Z,5.70
2018-06-25T19:55:28.467Z,5.93
2018-06-25T19:57:57.393Z,5.47
2018-06-25T20:00:26.254Z,8.70
2018-06-25T20:02:55.394Z,4.73
2018-06-25T20:05:24.225Z,4.67
2018-06-25T20:07:53.054Z,4.97
2018-06-25T20:10:22.017Z,5.03
2018-06-25T20:12:50.933Z,5.53
2018-06-25T20:15:19.863Z,6.03
2018-06-25T20:17:48.886Z,4.60
2018-06-25T20:20:17.667Z,4.60
2018-06-25T20:22:46.475Z,6.03
2018-06-25T20:25:15.568Z,5.27
2018-06-25T20:27:44.401Z,4.77
2018-06-25T20:30:13.203Z,6.13
2018-06-25T20:32:42.295Z,4.73
2018-06-25T20:35:11.229Z,5.00
2018-06-25T20:37:40.216Z,4.57
2018-06-25T20:40:09.280Z,5.27
2018-06-25T20:42:38.114Z,10.93
2018-06-25T20:45:07.059Z,4.50
2018-06-25T20:47:35.997Z,6.10
2018-06-25T20:50:05.024Z,6.67
2018-06-25T20:52:33.897Z,8.13
2018-06-25T20:55:03.820Z,5.07
2018-06-25T20:57:32.588Z,5.00
2018-06-25T21:00:01.658Z,4.80
2018-06-25T21:02:30.678Z,5.77
2018-06-25T21:04:59.533Z,4.87
2018-06-25T21:07:28.527Z,7.73
2018-06-25T21:09:57.454Z,4.47
2018-06-25T21:12:26.309Z,4.10
2018-06-25T21:14:55.118Z,4.40
2018-06-25T21:17:23.998Z,3.53
2018-06-25T21:19:52.803Z,7.97
2018-06-25T21:22:21.617Z,5.97
2018-06-25T21:24:50.670Z,4.10
2018-06-25T21:27:19.606Z,4.17
2018-06-25T21:29:48.409Z,5.03
2018-06-25T21:32:17.426Z,5.20
2018-06-25T21:34:46.333Z,3.60
2018-06-25T21:37:15.120Z,2.90
2018-06-25T21:39:43.960Z,4.13
2018-06-25T21:42:12.836Z,4.37
2018-06-25T21:44:41.627Z,4.57
2018-06-25T21:47:10.465Z,2.73
2018-06-25T21:49:39.302Z,5.67
2018-06-25T21:52:08.086Z,2.80
2018-06-25T21:54:37.024Z,9.17
2018-06-25T21:57:05.871Z,6.03
2018-06-25T21:59:34.664Z,3.03
2018-06-25T22:02:03.604Z,5.87
2018-06-25T22:06:58.191Z,3.10
2018-06-25T22:09:27.002Z,4.43
2018-06-25T22:11:55.837Z,3.33
2018-06-25T22:14:24.712Z,3.00
2018-06-25T22:16:53.739Z,3.00
2018-06-25T22:19:22.581Z,3.40
2018-06-25T22:21:51.404Z,2.97
2018-06-25T22:24:20.219Z,2.63
2018-06-25T22:26:49.030Z,4.30
2018-06-25T22:29:18.042Z,2.77
2018-06-25T22:31:46.860Z,4.17
2018-06-25T22:34:15.664Z,3.40
2018-06-25T22:36:44.554Z,4.07
2018-06-25T22:39:13.379Z,2.93
2018-06-25T22:41:42.519Z,3.13
2018-06-25T22:44:13.533Z,9.73
2018-06-25T22:46:43.386Z,3.07
2018-06-25T22:49:12.386Z,8.77
2018-06-25T22:51:41.211Z,3.00
2018-06-25T22:54:10.025Z,2.77
2018-06-25T22:56:38.854Z,2.77
2018-06-25T22:59:07.687Z,3.00
2018-06-25T23:01:36.472Z,3.37
2018-06-25T23:04:05.376Z,2.70
2018-06-25T23:06:34.303Z,2.70
2018-06-25T23:09:03.220Z,2.77
2018-06-25T23:11:32.038Z,2.90
2018-06-25T23:14:00.840Z,6.23
2018-06-25T23:16:29.621Z,4.80
2018-06-25T23:18:58.403Z,2.60
2018-06-25T23:21:27.395Z,2.90
2018-06-25T23:23:56.183Z,2.33
2018-06-25T23:26:24.983Z,3.07
2018-06-25T23:28:53.884Z,5.97
2018-06-25T23:31:22.682Z,2.50
2018-06-25T23:33:51.459Z,2.30
2018-06-25T23:36:20.287Z,3.00
2018-06-25T23:38:49.046Z,2.60
2018-06-25T23:41:17.875Z,2.50
2018-06-25T23:43:47.009Z,2.20
2018-06-25T23:46:15.789Z,3.40
2018-06-25T23:48:44.605Z,3.13
2018-06-25T23:51:13.541Z,4.27
2018-06-25T23:53:42.357Z,2.70
2018-06-25T23:56:11.153Z,7.20
2018-06-25T23:58:39.961Z,6.50
